Time;durP1;ratioP1;P1;durP2;ratioP2;P2;SDS_P1;SDS_P2;PMS_P1;PMS_P2;Temp;Humidity;BMP_temperature;BMP_pressure;BME280_temperature;BME280_humidity;BME280_pressure;Samples;Min_cycle;Max_cycle;Signal;HPM_P1;HPM_P2
2021/01/31 00:03:14;;;;;;;20.17;6.32;;;;;;;3.80;69.98;99771.22;3985826;32;15109850;-76
2021/01/31 00:05:42;;;;;;;20.12;5.37;;;;;;;3.80;69.98;99771.22;4446842;32;20459;-77
2021/01/31 00:08:09;;;;;;;15.70;5.97;;;;;;;3.34;70.91;99770.97;4440411;32;20038;-76
2021/01/31 00:10:35;;;;;;;16.80;5.55;;;;;;;3.30;70.92;99765.47;4441445;32;20065;-76
2021/01/31 00:13:03;;;;;;;14.80;5.30;;;;;;;3.27;70.84;99771.84;4443608;32;20101;-77
2021/01/31 00:15:33;;;;;;;19.42;5.40;;;;;;;3.29;70.92;99774.22;4444689;32;20065;-76
2021/01/31 00:18:00;;;;;;;14.82;5.30;;;;;;;3.28;71.11;99769.88;4442220;32;20050;-76
2021/01/31 00:20:28;;;;;;;12.43;5.57;;;;;;;3.23;71.14;99767.53;4445404;32;20033;-76
2021/01/31 00:22:54;;;;;;;19.23;5.65;;;;;;;3.29;70.88;99768.66;4443488;32;20153;-76
2021/01/31 00:25:20;;;;;;;17.92;5.70;;;;;;;3.21;71.17;99762.38;4447852;32;20037;-75
2021/01/31 00:27:46;;;;;;;15.82;6.12;;;;;;;3.21;71.08;99776.28;4444237;32;20170;-76
2021/01/31 00:32:58;;;;;;;20.02;5.60;;;;;;;3.59;70.21;99788.19;4006974;26;15023299;-74
2021/01/31 00:35:27;;;;;;;24.67;6.00;;;;;;;3.59;70.21;99788.19;4427922;32;20068;-75
2021/01/31 00:37:53;;;;;;;16.87;6.60;;;;;;;3.18;71.22;99793.78;4419862;32;20666;-76
2021/01/31 00:40:19;;;;;;;16.90;7.35;;;;;;;3.12;71.33;99789.06;4425973;32;20049;-75
2021/01/31 00:42:45;;;;;;;16.62;6.78;;;;;;;3.15;71.63;99793.81;4433776;32;20103;-75
2021/01/31 00:45:14;;;;;;;18.67;5.65;;;;;;;3.14;71.56;99795.81;4424807;32;20038;-74
2021/01/31 00:47:40;;;;;;;17.08;6.70;;;;;;;3.10;71.62;99800.59;4428157;32;20480;-73
2021/01/31 00:50:07;;;;;;;12.82;5.50;;;;;;;3.07;71.66;99795.84;4429252;32;20054;-73
2021/01/31 00:52:32;;;;;;;18.40;5.47;;;;;;;3.06;71.40;99790.72;4428203;32;20042;-73
2021/01/31 00:54:58;;;;;;;22.40;5.85;;;;;;;3.06;71.53;99790.72;4427364;32;20463;-73
2021/01/31 00:57:24;;;;;;;19.25;6.40;;;;;;;3.04;71.59;99791.12;4427988;32;20053;-74
2021/01/31 00:59:50;;;;;;;16.92;6.18;;;;;;;3.05;71.38;99792.72;4424279;32;20477;-75
2021/01/31 01:02:19;;;;;;;18.73;6.10;;;;;;;3.01;71.34;99794.72;4427861;32;20065;-75
2021/01/31 01:04:48;;;;;;;15.15;6.07;;;;;;;2.99;72.21;99788.00;4438270;32;20068;-75
2021/01/31 01:07:15;;;;;;;22.62;6.55;;;;;;;2.97;72.33;99793.97;4423574;32;20093;-75
2021/01/31 01:09:41;;;;;;;17.70;6.37;;;;;;;2.98;72.35;99783.66;4412613;32;20046;-74
2021/01/31 01:12:07;;;;;;;22.77;6.85;;;;;;;2.96;72.37;99795.19;4429770;32;20082;-74
2021/01/31 01:14:33;;;;;;;14.93;5.97;;;;;;;3.00;72.39;99795.94;4434762;32;20025;-74
2021/01/31 01:17:00;;;;;;;18.65;6.10;;;;;;;3.02;72.25;99792.75;4428935;32;20054;-75
2021/01/31 01:19:27;;;;;;;18.42;7.10;;;;;;;3.09;71.97;99801.00;4432439;32;20046;-74
2021/01/31 01:21:53;;;;;;;20.58;7.22;;;;;;;3.01;72.26;99802.28;4424650;32;20061;-74
2021/01/31 01:24:19;;;;;;;23.30;7.37;;;;;;;2.94;72.48;99803.13;4427950;32;20546;-74
2021/01/31 01:26:45;;;;;;;18.73;7.25;;;;;;;2.94;72.70;99797.56;4421747;32;20469;-74
2021/01/31 01:29:11;;;;;;;18.00;7.00;;;;;;;2.92;72.69;99802.75;4423870;32;20336;-75
2021/01/31 01:31:37;;;;;;;21.20;7.47;;;;;;;2.93;72.76;99796.00;4423265;32;20062;-74
2021/01/31 01:34:04;;;;;;;17.40;7.50;;;;;;;2.94;72.88;99799.53;4424819;32;20140;-74
2021/01/31 01:36:33;;;;;;;18.67;7.12;;;;;;;2.92;72.90;99793.63;4420413;32;20104;-74
2021/01/31 01:38:59;;;;;;;24.52;7.10;;;;;;;2.97;72.90;99784.84;4415505;32;20053;-73
2021/01/31 01:41:26;;;;;;;20.58;7.55;;;;;;;2.95;72.95;99781.69;4409277;32;20133;-73
2021/01/31 01:43:53;;;;;;;16.08;7.20;;;;;;;2.97;72.92;99777.28;4403264;32;20423;-73
2021/01/31 01:48:59;;;;;;;15.27;7.85;;;;;;;3.44;71.66;99778.44;3990127;31;15708196;-74
2021/01/31 01:51:35;;;;;;;21.85;7.50;;;;;;;3.44;71.66;99778.44;4470381;32;20192;-74
2021/01/31 01:54:02;;;;;;;21.30;6.12;;;;;;;3.00;72.19;99779.25;4475651;32;20416;-74
2021/01/31 01:56:35;;;;;;;18.40;6.15;;;;;;;2.55;73.20;99774.88;4472555;32;20103;-73
2021/01/31 01:59:03;;;;;;;16.12;6.93;;;;;;;2.41;74.03;99776.94;4458015;32;20053;-73
2021/01/31 02:01:30;;;;;;;21.25;6.55;;;;;;;2.35;74.28;99781.34;4465967;32;20441;-73
2021/01/31 02:03:58;;;;;;;21.27;7.03;;;;;;;2.28;74.34;99779.44;4466213;32;20037;-73
2021/01/31 02:06:26;;;;;;;18.67;6.55;;;;;;;2.24;74.65;99781.41;4471433;32;20032;-74
2021/01/31 02:08:55;;;;;;;13.07;6.57;;;;;;;2.24;74.82;99778.63;4471404;32;20052;-74
2021/01/31 02:11:22;;;;;;;20.67;6.97;;;;;;;2.22;74.80;99775.50;4469878;32;20045;-73
2021/01/31 02:14:00;;;;;;;19.15;6.37;;;;;;;2.26;74.74;99767.13;4469275;32;20460;-74
2021/01/31 02:22:43;;;;;;;20.15;7.62;;;;;;;2.98;73.05;99747.53;3989585;32;15024281;-73
2021/01/31 02:35:40;;;;;;;19.15;7.70;;;;;;;3.52;71.02;99750.13;3985790;32;15024756;-75
2021/01/31 02:40:55;;;;;;;25.10;8.10;;;;;;;3.47;71.37;99738.66;4004686;31;15015369;-73
2021/01/31 02:46:17;;;;;;;23.20;8.45;;;;;;;3.27;71.15;99754.38;3986978;32;15023683;-73
2021/01/31 02:48:52;;;;;;;21.73;8.43;;;;;;;3.27;71.15;99754.38;4440311;32;20440;-73
2021/01/31 02:51:24;;;;;;;25.00;9.77;;;;;;;2.42;74.20;99762.66;4440617;32;20025;-73
2021/01/31 02:54:14;;;;;;;21.23;8.85;;;;;;;2.25;75.01;99749.69;4444673;32;20038;-74
2021/01/31 02:56:49;;;;;;;27.52;10.05;;;;;;;2.26;75.18;99754.06;4439417;32;20022;-74
2021/01/31 02:59:33;;;;;;;24.20;9.68;;;;;;;2.16;75.33;99752.13;4440745;32;20351;-73
2021/01/31 03:02:04;;;;;;;25.15;9.60;;;;;;;2.11;75.77;99741.47;4438797;32;20057;-74
2021/01/31 03:07:26;;;;;;;24.00;10.20;;;;;;;2.46;74.65;99732.09;3985666;31;15714765;-73
2021/01/31 03:10:21;;;;;;;27.15;10.80;;;;;;;2.46;74.65;99732.09;4477071;32;20068;-73
2021/01/31 03:12:58;;;;;;;24.80;10.32;;;;;;;2.00;75.77;99741.50;4475647;32;20067;-73
2021/01/31 03:15:29;;;;;;;24.60;9.52;;;;;;;1.95;76.04;99735.63;4466020;32;20063;-73
2021/01/31 03:20:37;;;;;;;30.27;13.60;;;;;;;2.31;75.48;99752.84;3988705;32;15023330;-73
2021/01/31 03:25:43;;;;;;;24.23;10.60;;;;;;;2.32;75.60;99760.75;4011845;31;15019009;-73
2021/01/31 03:28:09;;;;;;;24.90;10.13;;;;;;;2.32;75.60;99760.75;4467146;32;20067;-73
2021/01/31 03:30:34;;;;;;;24.45;9.52;;;;;;;1.87;76.33;99761.81;4464610;32;20096;-74
2021/01/31 03:33:08;;;;;;;29.17;9.90;;;;;;;1.86;76.42;99757.44;4464979;32;20500;-73
2021/01/31 03:35:41;;;;;;;27.53;11.17;;;;;;;1.86;76.10;99760.22;4459857;32;20029;-73
2021/01/31 03:40:55;;;;;;;23.67;10.57;;;;;;;2.84;73.27;99758.75;4000135;31;15015805;-73
2021/01/31 03:43:21;;;;;;;33.60;12.05;;;;;;;2.84;73.27;99758.75;4460578;32;20024;-73
2021/01/31 03:46:02;;;;;;;30.58;11.77;;;;;;;1.81;75.71;99742.03;4451657;32;20643;-73
2021/01/31 03:48:34;;;;;;;26.73;9.93;;;;;;;1.73;76.82;99737.72;4455192;32;20467;-73
2021/01/31 03:51:00;;;;;;;26.37;10.45;;;;;;;1.65;76.89;99727.03;4461810;32;20474;-73
2021/01/31 03:53:25;;;;;;;27.08;10.05;;;;;;;1.63;76.36;99718.34;4463346;32;20099;-73
2021/01/31 03:55:51;;;;;;;30.17;11.20;;;;;;;1.58;76.20;99716.78;4459454;32;20403;-73
2021/01/31 03:58:19;;;;;;;25.73;9.85;;;;;;;1.57;76.16;99717.19;4461804;32;20204;-73
2021/01/31 04:00:52;;;;;;;24.92;9.75;;;;;;;1.56;76.23;99713.63;4462741;32;20024;-73
2021/01/31 04:03:24;;;;;;;27.17;10.23;;;;;;;1.59;76.01;99709.25;4459702;32;20424;-73
2021/01/31 04:06:11;;;;;;;22.05;8.55;;;;;;;1.55;76.05;99703.72;4460202;32;20096;-73
2021/01/31 04:08:40;;;;;;;24.65;10.65;;;;;;;1.52;76.14;99712.84;4460245;32;20041;-73
2021/01/31 04:11:06;;;;;;;22.60;9.93;;;;;;;1.51;76.53;99716.81;4462623;32;20041;-73
2021/01/31 04:13:34;;;;;;;28.02;11.38;;;;;;;1.48;76.78;99706.50;4462579;32;20040;-73
2021/01/31 04:16:04;;;;;;;28.05;11.82;;;;;;;1.60;76.72;99708.06;4459612;32;20062;-73
2021/01/31 04:18:29;;;;;;;26.55;10.95;;;;;;;1.41;77.14;99700.25;4457215;32;20037;-73
2021/01/31 04:20:56;;;;;;;33.60;12.68;;;;;;;1.41;77.20;99703.00;4462037;32;20071;-73
2021/01/31 04:23:22;;;;;;;34.20;11.95;;;;;;;1.44;77.00;99702.97;4448472;32;20079;-73
2021/01/31 04:25:49;;;;;;;26.95;12.43;;;;;;;1.42;77.38;99707.34;4457587;32;20084;-73
2021/01/31 04:28:19;;;;;;;28.75;12.68;;;;;;;1.48;77.28;99706.50;4446505;32;20447;-74
2021/01/31 04:30:46;;;;;;;29.98;13.07;;;;;;;1.39;77.06;99699.84;4460643;32;20408;-73
2021/01/31 04:33:14;;;;;;;27.90;12.50;;;;;;;1.36;76.59;99693.12;4457309;32;20071;-73
2021/01/31 04:35:40;;;;;;;31.23;14.00;;;;;;;1.32;77.06;99691.56;4444804;32;20022;-73
2021/01/31 04:38:06;;;;;;;29.77;12.30;;;;;;;1.29;77.31;99693.12;4444095;32;20037;-73
2021/01/31 04:40:33;;;;;;;37.67;14.87;;;;;;;1.34;77.23;99689.97;4424606;32;20045;-73
2021/01/31 04:43:02;;;;;;;31.77;12.23;;;;;;;1.33;76.99;99684.81;4446381;32;20092;-74
2021/01/31 04:45:27;;;;;;;28.30;11.82;;;;;;;1.30;76.82;99691.16;4433752;32;20026;-73
2021/01/31 04:50:38;;;;;;;27.17;11.65;;;;;;;1.76;76.30;99695.31;3964802;32;15722624;-74
2021/01/31 04:53:31;;;;;;;26.45;10.57;;;;;;;1.76;76.30;99695.31;4434177;32;20060;-75
2021/01/31 04:58:50;;;;;;;25.55;11.02;;;;;;;1.69;75.88;99692.56;3989092;32;15022138;-73
2021/01/31 05:01:32;;;;;;;28.33;10.65;;;;;;;1.69;75.88;99692.56;4441430;32;20105;-73
2021/01/31 05:04:04;;;;;;;27.30;9.50;;;;;;;1.14;76.72;99677.75;4444149;32;20052;-73
2021/01/31 05:06:36;;;;;;;31.58;10.90;;;;;;;1.13;77.30;99678.16;4446511;32;20037;-73
2021/01/31 05:09:04;;;;;;;29.50;11.23;;;;;;;1.11;77.25;99684.09;4439435;32;20056;-73
2021/01/31 05:16:42;;;;;;;29.17;10.98;;;;;;;1.52;76.56;99651.88;3993339;32;15022289;-73
2021/01/31 05:19:13;;;;;;;25.77;10.75;;;;;;;1.52;76.56;99651.88;4431800;32;20063;-73
2021/01/31 05:21:39;;;;;;;26.77;10.10;;;;;;;1.15;77.38;99653.62;4439331;32;20021;-73
2021/01/31 05:24:10;;;;;;;26.65;9.57;;;;;;;1.11;76.69;99653.62;4433856;32;20067;-73
2021/01/31 05:26:40;;;;;;;22.15;10.00;;;;;;;1.12;76.79;99649.69;4436129;32;20559;-73
2021/01/31 05:29:14;;;;;;;28.30;10.80;;;;;;;1.07;77.11;99655.63;4438665;32;20099;-74
2021/01/31 05:31:43;;;;;;;30.25;11.60;;;;;;;1.03;77.37;99649.31;4444461;32;20037;-73
2021/01/31 05:34:10;;;;;;;26.80;11.05;;;;;;;0.97;77.59;99650.91;4425279;32;20026;-73
2021/01/31 05:36:36;;;;;;;24.45;10.60;;;;;;;0.98;77.47;99651.72;4424419;32;20112;-74
2021/01/31 05:39:02;;;;;;;24.10;9.95;;;;;;;0.99;77.16;99648.53;4430521;32;20072;-73
2021/01/31 05:44:26;;;;;;;31.05;10.63;;;;;;;1.42;75.97;99641.63;3987106;32;15025171;-73
2021/01/31 05:46:56;;;;;;;23.00;10.00;;;;;;;1.42;75.97;99641.63;4437776;32;20025;-73
2021/01/31 05:49:42;;;;;;;25.92;9.77;;;;;;;0.92;76.86;99643.00;4442395;32;20357;-73
2021/01/31 05:52:30;;;;;;;24.87;10.50;;;;;;;0.95;76.70;99638.66;4437592;32;20083;-73
2021/01/31 05:54:56;;;;;;;28.58;10.48;;;;;;;0.94;76.60;99629.56;4439429;32;20073;-73
2021/01/31 06:00:23;;;;;;;27.62;10.30;;;;;;;1.31;74.87;99617.91;3990784;32;15024274;-73
2021/01/31 06:03:09;;;;;;;24.98;10.63;;;;;;;1.31;74.87;99617.91;4437078;32;20347;-72
2021/01/31 06:05:36;;;;;;;26.60;10.98;;;;;;;0.85;75.68;99618.09;4434041;32;20022;-72
2021/01/31 06:10:57;;;;;;;28.48;10.57;;;;;;;1.18;76.64;99611.25;4011247;31;15020210;-72
2021/01/31 06:13:23;;;;;;;26.73;11.12;;;;;;;1.18;76.64;99611.25;4468578;32;20062;-72
2021/01/31 06:15:56;;;;;;;21.08;9.57;;;;;;;0.79;77.29;99603.09;4461466;32;20072;-73
2021/01/31 06:18:27;;;;;;;33.70;10.68;;;;;;;0.82;77.12;99595.97;4464353;32;20441;-72
2021/01/31 06:20:53;;;;;;;28.77;10.25;;;;;;;0.87;76.81;99587.25;4472581;32;20043;-72
2021/01/31 06:23:32;;;;;;;28.70;10.93;;;;;;;0.87;76.58;99587.25;4472439;32;20032;-74
2021/01/31 06:25:58;;;;;;;26.55;10.90;;;;;;;0.90;76.37;99587.25;4470288;32;20051;-73
2021/01/31 06:28:28;;;;;;;25.20;9.10;;;;;;;0.87;76.84;99588.03;4458025;32;20342;-73
2021/01/31 06:33:49;;;;;;;25.48;10.05;;;;;;;0.97;77.06;99575.31;3985473;32;15023764;-73
2021/01/31 06:42:14;;;;;;;26.90;9.90;;;;;;;1.38;75.80;99570.78;3977930;32;15023096;-73
2021/01/31 06:47:29;;;;;;;26.08;10.70;;;;;;;0.99;76.62;99562.69;3964771;32;15722598;-73
2021/01/31 07:06:25;;;;;;;28.58;11.90;;;;;;;1.31;75.13;99554.69;3987175;32;15022899;-74
2021/01/31 07:09:30;;;;;;;32.65;12.27;;;;;;;1.31;75.13;99557.75;4438453;32;20057;-73
2021/01/31 07:17:32;;;;;;;37.83;12.48;;;;;;;1.28;75.37;99558.56;3990159;32;15022505;-73
2021/01/31 07:20:06;;;;;;;29.48;12.40;;;;;;;0.89;76.07;99551.66;4444430;32;20060;-73
2021/01/31 07:22:41;;;;;;;28.83;12.18;;;;;;;0.86;76.41;99555.97;4437544;32;20489;-73
2021/01/31 07:27:53;;;;;;;31.25;12.10;;;;;;;0.83;76.79;99542.94;3986653;32;15024532;-75
2021/01/31 07:30:24;;;;;;;27.23;12.23;;;;;;;1.30;75.19;99538.75;4435450;32;20414;-74
2021/01/31 07:35:33;;;;;;;29.42;13.43;;;;;;;1.90;73.24;99533.53;4010284;31;15015420;-73
2021/01/31 07:38:08;;;;;;;26.10;11.80;;;;;;;1.90;73.24;99533.53;4451662;32;20472;-73
2021/01/31 07:40:34;;;;;;;34.08;12.63;;;;;;;1.45;73.48;99532.72;4458661;32;20032;-72
2021/01/31 07:43:02;;;;;;;33.42;13.52;;;;;;;1.31;73.88;99518.94;4472522;32;20036;-73
2021/01/31 07:45:28;;;;;;;35.45;12.75;;;;;;;1.37;74.23;99530.38;4462417;32;20098;-73
2021/01/31 07:48:34;;;;;;;27.08;11.82;;;;;;;1.31;74.09;99523.69;4459390;32;20033;-73
2021/01/31 07:51:03;;;;;;;21.90;9.17;;;;;;;1.37;73.87;99533.94;4477285;32;20069;-73
2021/01/31 07:53:39;;;;;;;27.08;10.50;;;;;;;1.57;73.38;99526.66;4464437;32;20093;-73
2021/01/31 08:12:13;;;;;;;26.48;11.02;;;;;;;1.41;73.97;99518.06;3989742;32;15028060;-75
2021/01/31 08:15:18;;;;;;;30.65;12.13;;;;;;;1.41;73.97;99518.06;4436945;32;20041;-75
2021/01/31 08:26:05;;;;;;;26.50;10.20;;;;;;;1.65;73.19;99483.03;3985818;32;15023261;-75
2021/01/31 08:28:34;;;;;;;27.27;11.15;;;;;;;1.65;73.19;99483.03;4442572;32;20025;-75
2021/01/31 08:33:38;;;;;;;30.00;12.85;;;;;;;1.81;73.94;99500.72;3979192;31;15707007;-75
2021/01/31 08:38:45;;;;;;;29.77;11.93;;;;;;;1.86;74.14;99482.84;3962044;32;15742403;-73
2021/01/31 08:49:17;;;;;;;27.80;13.18;;;;;;;2.21;73.75;99487.28;3987784;32;15022698;-75
2021/01/31 08:51:45;;;;;;;32.05;14.07;;;;;;;2.21;73.75;99487.28;4438821;32;20033;-75
2021/01/31 08:56:53;;;;;;;30.45;12.43;;;;;;;1.91;73.68;99474.09;3993310;32;15022702;-75
2021/01/31 09:02:25;;;;;;;36.40;14.02;;;;;;;2.71;72.51;99469.63;3988287;32;15022480;-72
2021/01/31 09:04:58;;;;;;;29.67;12.93;;;;;;;2.71;72.51;99469.63;4443956;32;20056;-73
2021/01/31 09:10:14;;;;;;;28.87;12.37;;;;;;;3.08;71.56;99471.50;3999643;31;15015696;-73
2021/01/31 09:12:40;;;;;;;32.78;13.60;;;;;;;3.08;71.56;99471.50;4451364;32;20045;-73
2021/01/31 09:15:14;;;;;;;39.22;14.57;;;;;;;2.67;72.11;99468.84;4453963;32;20067;-73
2021/01/31 09:17:41;;;;;;;34.08;14.25;;;;;;;2.82;70.95;99463.94;4453024;32;20382;-73
2021/01/31 09:22:48;;;;;;;47.55;15.65;;;;;;;3.48;71.34;99448.22;3990028;32;15023894;-73
2021/01/31 09:25:18;;;;;;;35.03;14.70;;;;;;;3.48;71.34;99448.22;4441289;32;20358;-74
2021/01/31 09:27:55;;;;;;;43.20;16.05;;;;;;;3.07;71.87;99442.13;4440291;32;20038;-74
2021/01/31 09:30:22;;;;;;;33.83;15.43;;;;;;;3.11;71.60;99437.31;4435888;32;20084;-74
2021/01/31 09:32:51;;;;;;;35.55;15.77;;;;;;;3.17;72.03;99435.63;4440411;32;20072;-74
2021/01/31 09:35:23;;;;;;;31.98;14.52;;;;;;;3.23;71.47;99431.97;4441434;32;20107;-73
2021/01/31 09:37:49;;;;;;;33.58;14.35;;;;;;;3.33;71.78;99425.44;4437580;32;20399;-73
2021/01/31 09:40:15;;;;;;;32.72;14.57;;;;;;;3.47;72.39;99422.41;4437329;32;20051;-73
2021/01/31 09:42:42;;;;;;;32.35;14.87;;;;;;;3.66;71.61;99418.12;4440781;32;20170;-74
2021/01/31 09:45:23;;;;;;;34.78;14.30;;;;;;;3.82;71.69;99415.44;4438184;32;20030;-73
2021/01/31 09:47:50;;;;;;;35.70;16.52;;;;;;;4.02;70.99;99417.03;4432833;32;20068;-77
2021/01/31 09:50:17;;;;;;;33.15;17.05;;;;;;;4.13;70.65;99408.50;4437361;32;20124;-76
2021/01/31 09:52:45;;;;;;;33.28;16.52;;;;;;;4.23;70.45;99412.31;4436784;32;20022;-75
2021/01/31 09:55:38;;;;;;;35.17;16.30;;;;;;;4.40;70.17;99400.00;4436882;32;20029;-75
2021/01/31 09:58:12;;;;;;;34.05;15.40;;;;;;;4.36;68.67;99402.88;4438022;32;20042;-75
2021/01/31 10:00:38;;;;;;;35.28;16.23;;;;;;;4.49;68.79;99398.22;4437352;32;20034;-75
2021/01/31 10:03:07;;;;;;;35.88;15.95;;;;;;;4.51;69.61;99406.16;4441545;32;20414;-75
2021/01/31 10:05:35;;;;;;;40.28;15.20;;;;;;;4.59;69.31;99397.19;4439279;32;20406;-75
2021/01/31 10:08:06;;;;;;;37.20;16.35;;;;;;;4.64;69.50;99390.34;4432636;32;20052;-75
2021/01/31 10:15:57;;;;;;;36.58;14.98;;;;;;;5.15;67.08;99384.75;3989360;32;15039978;-73
2021/01/31 10:18:39;;;;;;;31.85;15.00;;;;;;;5.15;67.08;99384.75;4437002;32;20045;-73
2021/01/31 10:21:29;;;;;;;30.50;14.40;;;;;;;4.86;69.08;99372.72;4437515;32;20063;-76
2021/01/31 10:24:03;;;;;;;37.05;15.35;;;;;;;5.04;68.60;99359.16;4431034;32;20034;-74
2021/01/31 10:26:29;;;;;;;35.08;15.70;;;;;;;5.08;67.52;99359.84;4444007;32;20022;-76
2021/01/31 10:29:00;;;;;;;33.60;15.05;;;;;;;5.15;67.88;99358.88;4436518;32;21117;-73
2021/01/31 10:34:04;;;;;;;32.17;14.90;;;;;;;5.78;66.46;99365.62;3995867;32;15022980;-73
2021/01/31 10:36:34;;;;;;;32.78;14.70;;;;;;;5.78;66.46;99365.62;4444332;32;20089;-74
2021/01/31 10:39:25;;;;;;;37.92;16.60;;;;;;;5.46;66.41;99362.91;4442770;32;20101;-74
2021/01/31 10:41:51;;;;;;;36.85;15.68;;;;;;;5.59;67.05;99358.94;4436697;32;20073;-74
2021/01/31 10:46:55;;;;;;;39.42;16.37;;;;;;;5.80;66.71;99352.78;3987104;32;15127852;-75
2021/01/31 10:49:22;;;;;;;31.48;15.60;;;;;;;5.73;65.83;99346.63;4439170;32;20044;-75
2021/01/31 10:51:51;;;;;;;32.33;15.45;;;;;;;5.72;66.17;99343.06;4442295;32;20410;-75
2021/01/31 10:54:19;;;;;;;34.22;15.98;;;;;;;5.75;66.77;99341.38;4444393;32;20048;-75
2021/01/31 10:56:45;;;;;;;33.40;17.30;;;;;;;5.83;66.88;99331.66;4440843;32;20014;-75
2021/01/31 10:59:11;;;;;;;38.60;16.65;;;;;;;5.83;66.70;99338.00;4438962;32;20146;-75
2021/01/31 11:01:41;;;;;;;37.17;17.17;;;;;;;5.93;66.39;99327.75;4444889;32;20026;-75
2021/01/31 11:04:06;;;;;;;32.55;15.98;;;;;;;6.00;66.14;99331.16;4439396;32;20022;-75
2021/01/31 11:06:32;;;;;;;33.67;14.87;;;;;;;5.98;65.85;99322.41;4438609;32;20067;-75
2021/01/31 11:08:58;;;;;;;27.83;13.68;;;;;;;6.05;65.63;99324.22;4442702;32;20062;-76
2021/01/31 11:11:24;;;;;;;27.17;13.18;;;;;;;6.08;65.32;99318.53;4443637;32;20105;-75
2021/01/31 11:13:50;;;;;;;31.23;14.20;;;;;;;5.95;64.30;99320.50;4444035;32;20074;-76
2021/01/31 11:16:18;;;;;;;24.33;12.60;;;;;;;6.03;65.29;99307.13;4437510;32;20179;-75
2021/01/31 11:18:45;;;;;;;25.10;12.57;;;;;;;6.00;65.96;99310.81;4436680;32;20047;-75
2021/01/31 11:21:18;;;;;;;29.90;12.88;;;;;;;6.14;65.85;99299.25;4442162;32;20048;-75
2021/01/31 11:23:44;;;;;;;33.22;11.63;;;;;;;6.24;65.67;99297.34;4444524;32;20029;-75
2021/01/31 11:26:10;;;;;;;26.20;11.12;;;;;;;6.36;65.24;99291.78;4437012;32;20097;-75
2021/01/31 11:28:36;;;;;;;22.37;10.75;;;;;;;6.38;64.94;99291.34;4434267;32;20050;-75
2021/01/31 11:31:01;;;;;;;22.02;10.85;;;;;;;6.43;64.41;99282.41;4441486;32;20101;-75
2021/01/31 11:33:27;;;;;;;27.33;10.77;;;;;;;6.52;64.53;99274.12;4435818;32;20092;-75
2021/01/31 11:35:53;;;;;;;26.58;10.43;;;;;;;6.51;64.71;99267.78;4446489;32;20088;-75
2021/01/31 11:38:19;;;;;;;22.75;10.30;;;;;;;6.43;64.74;99268.41;4445655;32;20088;-75
2021/01/31 11:40:44;;;;;;;20.73;9.82;;;;;;;6.42;65.45;99264.88;4446579;32;20096;-75
2021/01/31 11:43:10;;;;;;;23.75;9.82;;;;;;;6.57;65.49;99251.22;4443882;32;20112;-75
2021/01/31 11:45:35;;;;;;;15.23;7.93;;;;;;;6.75;65.50;99248.66;4434984;32;20034;-76
2021/01/31 11:48:01;;;;;;;16.12;7.80;;;;;;;6.81;64.41;99246.84;4445250;32;20064;-75
2021/01/31 11:50:27;;;;;;;15.90;6.62;;;;;;;6.97;63.83;99246.72;4446199;32;20021;-75
2021/01/31 11:52:52;;;;;;;10.05;4.70;;;;;;;7.13;63.64;99238.19;4446222;32;20043;-75
2021/01/31 11:55:18;;;;;;;11.25;4.47;;;;;;;7.27;62.78;99240.50;4446989;32;20410;-74
2021/01/31 11:57:44;;;;;;;8.77;3.37;;;;;;;7.39;62.58;99234.06;4438761;32;20082;-75
2021/01/31 12:00:14;;;;;;;8.23;3.10;;;;;;;7.40;61.32;99228.00;4434257;32;20073;-75
2021/01/31 12:02:40;;;;;;;8.07;3.17;;;;;;;7.34;61.18;99217.84;4434207;32;20081;-75
2021/01/31 12:05:09;;;;;;;10.93;2.97;;;;;;;7.20;61.39;99215.53;4436460;32;20065;-75
2021/01/31 12:07:34;;;;;;;9.57;3.25;;;;;;;7.01;61.90;99213.81;4436486;32;20354;-75
2021/01/31 12:10:00;;;;;;;16.73;4.18;;;;;;;7.15;61.75;99216.91;4435412;32;20037;-74
2021/01/31 12:12:26;;;;;;;14.02;3.70;;;;;;;6.96;61.60;99203.22;4434389;32;20052;-74
2021/01/31 12:14:52;;;;;;;8.60;2.97;;;;;;;6.96;61.17;99203.22;4436337;32;20052;-74
2021/01/31 12:17:17;;;;;;;12.20;3.70;;;;;;;7.10;62.39;99203.50;4434128;32;20319;-74
2021/01/31 12:19:43;;;;;;;7.65;3.70;;;;;;;7.11;61.45;99199.47;4435581;32;20518;-74
2021/01/31 12:22:08;;;;;;;5.85;3.30;;;;;;;7.11;61.80;99188.28;4435928;32;20049;-74
2021/01/31 12:24:34;;;;;;;13.25;3.22;;;;;;;7.17;61.15;99186.47;4435736;32;20037;-74
2021/01/31 12:27:00;;;;;;;10.30;3.33;;;;;;;7.31;61.51;99190.78;4435022;32;20029;-74
2021/01/31 12:29:26;;;;;;;8.73;3.10;;;;;;;7.29;61.10;99176.47;4434427;32;20098;-74
2021/01/31 12:31:51;;;;;;;9.15;3.65;;;;;;;7.35;60.84;99172.63;4434435;32;20493;-74
2021/01/31 12:34:17;;;;;;;24.80;4.15;;;;;;;7.38;60.61;99159.75;4434903;32;20105;-75
2021/01/31 12:36:43;;;;;;;10.98;3.50;;;;;;;7.33;61.12;99163.16;4427410;32;20365;-73
2021/01/31 12:39:09;;;;;;;13.98;3.35;;;;;;;7.38;60.76;99152.12;4435405;32;20365;-74
2021/01/31 12:41:35;;;;;;;10.90;4.12;;;;;;;7.16;60.58;99147.75;4436053;32;20014;-75
2021/01/31 12:44:00;;;;;;;10.63;3.87;;;;;;;7.32;60.75;99134.38;4436103;32;20041;-75
2021/01/31 12:46:26;;;;;;;8.43;3.55;;;;;;;7.37;61.14;99138.59;4434059;32;20471;-75
2021/01/31 12:48:52;;;;;;;14.20;3.70;;;;;;;7.37;60.83;99130.97;4435349;32;20041;-75
2021/01/31 12:51:18;;;;;;;8.82;4.40;;;;;;;7.35;59.98;99125.06;4435526;32;20048;-75
2021/01/31 12:53:44;;;;;;;10.32;4.28;;;;;;;7.22;61.17;99120.78;4435668;32;20098;-75
2021/01/31 12:56:09;;;;;;;7.03;3.20;;;;;;;7.26;61.75;99104.63;4435635;32;20068;-75
2021/01/31 12:58:35;;;;;;;11.18;3.75;;;;;;;7.25;60.92;99105.88;4435245;32;20106;-77
2021/01/31 13:01:01;;;;;;;13.13;4.12;;;;;;;7.15;60.96;99101.47;4428291;32;20158;-75
2021/01/31 13:03:26;;;;;;;11.27;4.57;;;;;;;6.92;60.93;99099.88;4435917;32;20470;-75
2021/01/31 13:05:52;;;;;;;12.48;4.37;;;;;;;6.90;62.36;99085.56;4435816;32;20046;-75
2021/01/31 13:08:18;;;;;;;14.77;4.50;;;;;;;7.49;60.77;99082.53;4434522;32;20434;-74
2021/01/31 13:10:43;;;;;;;9.30;3.85;;;;;;;7.72;60.27;99076.47;4435172;32;20336;-75
2021/01/31 13:13:09;;;;;;;18.85;4.95;;;;;;;7.89;60.22;99071.41;4435300;32;20090;-75
2021/01/31 13:15:35;;;;;;;15.05;3.83;;;;;;;7.59;61.12;99070.19;4436107;32;20033;-75
2021/01/31 13:18:00;;;;;;;9.90;3.72;;;;;;;7.26;61.04;99059.88;4435045;32;20053;-75
2021/01/31 13:20:27;;;;;;;11.12;4.22;;;;;;;7.50;61.45;99058.16;4434246;32;20459;-75
2021/01/31 13:22:53;;;;;;;15.98;3.55;;;;;;;7.47;61.46;99047.87;4436076;32;20034;-75
2021/01/31 13:25:20;;;;;;;11.98;4.25;;;;;;;7.47;60.84;99036.69;4435140;32;20087;-74
2021/01/31 13:27:45;;;;;;;16.00;4.53;;;;;;;7.57;60.92;99027.06;4435047;32;20355;-75
2021/01/31 13:30:15;;;;;;;10.70;5.22;;;;;;;7.45;61.18;99020.34;4434308;32;20056;-75
2021/01/31 13:32:42;;;;;;;10.90;3.78;;;;;;;7.56;60.95;99011.53;4433577;32;20061;-75
2021/01/31 13:35:09;;;;;;;9.00;3.37;;;;;;;7.62;60.50;99006.91;4434813;32;20064;-75
2021/01/31 13:37:35;;;;;;;8.13;3.12;;;;;;;7.60;60.40;99004.56;4434896;32;20456;-75
2021/01/31 13:40:01;;;;;;;14.38;4.37;;;;;;;7.60;59.59;98998.97;4427998;32;20112;-75
2021/01/31 13:42:26;;;;;;;13.10;4.85;;;;;;;7.55;60.59;98990.38;4435416;32;20071;-75
2021/01/31 13:44:52;;;;;;;8.50;3.15;;;;;;;7.45;61.09;98983.97;4433552;32;20111;-75
2021/01/31 13:47:18;;;;;;;10.38;3.55;;;;;;;7.51;60.59;98976.53;4433121;32;20140;-75
2021/01/31 13:49:43;;;;;;;9.02;3.12;;;;;;;7.45;60.23;98975.56;4434435;32;20524;-75
2021/01/31 13:52:09;;;;;;;13.80;3.72;;;;;;;7.56;60.57;98964.75;4433110;32;20049;-75
2021/01/31 13:54:34;;;;;;;17.42;3.75;;;;;;;7.65;60.29;98966.78;4435212;32;20045;-75
2021/01/31 13:57:00;;;;;;;9.52;3.05;;;;;;;7.76;60.29;98953.12;4434301;32;20034;-77
2021/01/31 13:59:26;;;;;;;8.82;3.17;;;;;;;7.84;60.11;98946.00;4433677;32;20219;-75
2021/01/31 14:01:51;;;;;;;7.97;3.33;;;;;;;7.92;60.06;98934.03;4434190;32;20029;-77
2021/01/31 14:04:21;;;;;;;14.73;3.80;;;;;;;7.90;59.95;98935.75;4433657;32;20060;-75
2021/01/31 14:06:47;;;;;;;9.07;2.90;;;;;;;7.84;59.73;98921.59;4435099;32;20079;-75
2021/01/31 14:09:13;;;;;;;9.80;3.17;;;;;;;7.85;59.79;98919.53;4433995;32;20482;-75
2021/01/31 14:11:39;;;;;;;9.30;3.25;;;;;;;7.90;60.05;98918.94;4432637;32;20544;-77
2021/01/31 14:14:08;;;;;;;11.63;3.17;;;;;;;7.99;59.75;98908.53;4432060;32;20033;-75